createdAt,value
2023-01-12T00:01:56.465Z,100907.72
2023-01-12T00:04:23.255Z,100908.63
2023-01-12T00:06:49.943Z,100915.50
2023-01-12T00:09:16.632Z,100906.97
2023-01-12T00:11:43.603Z,100909.53
2023-01-12T00:14:10.349Z,100910.41
2023-01-12T00:16:38.021Z,100908.75
2023-01-12T00:19:17.513Z,100904.44
2023-01-12T00:22:19.440Z,100888.88
2023-01-12T00:24:49.478Z,100884.41
2023-01-12T00:27:20.120Z,100883.63
2023-01-12T00:29:48.030Z,100885.28
2023-01-12T00:32:18.159Z,100892.16
2023-01-12T00:34:45.278Z,100874.03
2023-01-12T00:37:12.982Z,100886.00
2023-01-12T00:39:42.961Z,100874.03
2023-01-12T00:42:31.440Z,100876.66
2023-01-12T00:45:16.648Z,100872.41
2023-01-12T00:47:43.680Z,100878.19
2023-01-12T00:50:10.485Z,100867.72
2023-01-12T00:52:37.192Z,100861.88
2023-01-12T00:55:04.185Z,100864.41
2023-01-12T00:57:30.916Z,100854.97
2023-01-12T00:59:59.828Z,100857.44
2023-01-12T01:02:28.311Z,100850.53
2023-01-12T01:04:55.212Z,100847.97
2023-01-12T01:07:22.004Z,100853.06
2023-01-12T01:09:49.445Z,100854.75
2023-01-12T01:12:16.382Z,100860.75
2023-01-12T01:14:43.416Z,100850.34
2023-01-12T01:17:10.272Z,100846.84
2023-01-12T01:19:37.144Z,100861.47
2023-01-12T01:22:03.998Z,100864.81
2023-01-12T01:24:30.696Z,100855.25
2023-01-12T01:26:57.459Z,100862.13
2023-01-12T01:29:24.412Z,100862.00
2023-01-12T01:31:51.054Z,100865.47
2023-01-12T01:34:17.937Z,100847.41
2023-01-12T01:36:44.704Z,100850.75
2023-01-12T01:39:11.647Z,100847.91
2023-01-12T01:41:38.350Z,100853.16
2023-01-12T01:44:29.952Z,100849.59
2023-01-12T01:47:05.008Z,100850.59
2023-01-12T01:49:37.997Z,100847.97
2023-01-12T01:52:12.936Z,100834.09
2023-01-12T01:54:46.849Z,100836.66
2023-01-12T01:57:15.394Z,100841.88
2023-01-12T01:59:50.036Z,100838.53
2023-01-12T02:02:17.965Z,100836.66
2023-01-12T02:04:45.247Z,100826.31
2023-01-12T02:07:26.445Z,100813.41
2023-01-12T02:09:53.137Z,100806.41
2023-01-12T02:12:38.308Z,100795.31
2023-01-12T02:15:24.030Z,100791.66
2023-01-12T02:18:10.854Z,100789.13
2023-01-12T02:20:55.506Z,100795.25
2023-01-12T02:23:45.708Z,100783.97
2023-01-12T02:26:36.900Z,100783.16
2023-01-12T02:30:01.371Z,100790.13
2023-01-12T02:32:59.085Z,100787.56
2023-01-12T02:35:45.768Z,100777.16
2023-01-12T02:38:31.162Z,100778.97
2023-01-12T02:41:12.521Z,100770.22
2023-01-12T02:43:40.510Z,100769.47
2023-01-12T02:46:17.812Z,100770.28
2023-01-12T02:49:01.787Z,100763.41
2023-01-12T02:52:09.617Z,100769.53
2023-01-12T02:54:37.727Z,100752.38
2023-01-12T02:57:07.835Z,100749.09
2023-01-12T02:59:39.681Z,100758.53
2023-01-12T03:02:13.959Z,100735.28
2023-01-12T03:04:41.543Z,100738.06
2023-01-12T03:07:19.160Z,100743.09
2023-01-12T03:09:53.668Z,100729.44
2023-01-12T03:12:26.578Z,100721.72
2023-01-12T03:14:55.981Z,100728.66
2023-01-12T03:17:33.371Z,100714.00
2023-01-12T03:20:18.562Z,100722.72
2023-01-12T03:22:49.655Z,100723.56
2023-01-12T03:25:18.345Z,100712.28
2023-01-12T03:27:51.975Z,100710.56
2023-01-12T03:30:30.396Z,100719.16
2023-01-12T03:32:57.571Z,100709.00
2023-01-12T03:35:28.292Z,100702.84
2023-01-12T03:38:07.969Z,100714.81
2023-01-12T03:40:40.468Z,100702.78
2023-01-12T03:43:16.383Z,100718.91
2023-01-12T03:45:58.564Z,100696.84
2023-01-12T03:48:34.205Z,100687.31
2023-01-12T03:51:09.639Z,100681.22
2023-01-12T03:53:39.105Z,100680.28
2023-01-12T03:56:09.732Z,100683.75
2023-01-12T03:58:36.719Z,100671.66
2023-01-12T04:01:05.007Z,100664.66
2023-01-12T04:03:31.753Z,100662.06
2023-01-12T04:05:58.541Z,100666.09
2023-01-12T04:08:25.172Z,100660.16
2023-01-12T04:10:51.794Z,100659.03
2023-01-12T04:13:18.719Z,100642.56
2023-01-12T04:15:47.486Z,100648.81
2023-01-12T04:18:14.384Z,100654.88
2023-01-12T04:20:41.180Z,100631.41
2023-01-12T04:23:08.108Z,100645.41
2023-01-12T04:25:35.172Z,100635.16
2023-01-12T04:28:02.551Z,100643.84
2023-01-12T04:30:33.996Z,100647.19
2023-01-12T04:33:09.186Z,100635.09
2023-01-12T04:35:43.376Z,100632.63
2023-01-12T04:38:10.108Z,100622.09
2023-01-12T04:40:36.833Z,100620.66
2023-01-12T04:43:08.675Z,100613.16
2023-01-12T04:45:41.503Z,100613.00
2023-01-12T04:48:14.115Z,100599.38
2023-01-12T04:50:42.507Z,100591.34
2023-01-12T04:53:11.824Z,100595.97
2023-01-12T04:55:41.534Z,100589.19
2023-01-12T04:58:08.576Z,100581.53
2023-01-12T05:00:36.177Z,100583.22
2023-01-12T05:03:03.544Z,100579.84
2023-01-12T05:05:33.461Z,100583.38
2023-01-12T05:08:21.545Z,100576.44
2023-01-12T05:10:53.211Z,100557.22
2023-01-12T05:13:20.785Z,100554.91
2023-01-12T05:15:47.495Z,100561.88
2023-01-12T05:18:17.465Z,100560.94
2023-01-12T05:20:44.698Z,100555.84
2023-01-12T05:23:11.405Z,100550.56
2023-01-12T05:25:38.899Z,100538.78
2023-01-12T05:28:05.570Z,100548.16
2023-01-12T05:30:32.357Z,100528.56
2023-01-12T05:32:59.352Z,100525.94
2023-01-12T05:35:26.110Z,100500.16
2023-01-12T05:37:56.514Z,100495.63
2023-01-12T05:40:23.447Z,100500.19
2023-01-12T05:43:10.107Z,100491.63
2023-01-12T05:45:37.079Z,100488.22
2023-01-12T05:48:04.151Z,100482.84
2023-01-12T05:50:30.924Z,100466.59
2023-01-12T05:53:10.618Z,100478.03
2023-01-12T05:55:38.551Z,100470.13
2023-01-12T05:58:05.297Z,100463.34
2023-01-12T06:00:31.985Z,100456.47
2023-01-12T06:02:58.649Z,100471.84
2023-01-12T06:05:25.493Z,100470.22
2023-01-12T06:07:52.271Z,100456.38
2023-01-12T06:10:19.163Z,100455.47
2023-01-12T06:13:04.512Z,100459.19
2023-01-12T06:15:32.907Z,100485.13
2023-01-12T06:17:59.631Z,100459.06
2023-01-12T06:20:26.301Z,100437.75
2023-01-12T06:22:52.947Z,100446.28
2023-01-12T06:25:19.698Z,100450.28
2023-01-12T06:27:46.426Z,100442.84
2023-01-12T06:30:13.579Z,100447.06
2023-01-12T06:32:41.540Z,100437.31
2023-01-12T06:35:18.602Z,100429.34
2023-01-12T06:37:46.035Z,100445.00
2023-01-12T06:40:13.367Z,100434.56
2023-01-12T06:42:42.073Z,100428.41
2023-01-12T06:45:10.435Z,100443.16
2023-01-12T06:47:50.553Z,100435.47
2023-01-12T06:50:17.389Z,100415.84
2023-01-12T06:52:44.014Z,100437.16
2023-01-12T06:55:10.842Z,100425.78
2023-01-12T06:57:37.563Z,100412.16
2023-01-12T07:00:06.251Z,100425.03
2023-01-12T07:02:32.951Z,100428.47
2023-01-12T07:04:59.693Z,100426.72
2023-01-12T07:07:26.409Z,100416.38
2023-01-12T07:09:53.145Z,100426.63
2023-01-12T07:12:19.778Z,100419.59
2023-01-12T07:14:46.511Z,100422.28
2023-01-12T07:17:13.256Z,100424.13
2023-01-12T07:19:41.542Z,100423.84
2023-01-12T07:22:08.559Z,100408.41
2023-01-12T07:24:35.223Z,100403.16
2023-01-12T07:27:01.992Z,100408.13
2023-01-12T07:29:28.776Z,100415.97
2023-01-12T07:31:55.605Z,100410.84
2023-01-12T07:34:22.485Z,100422.13
2023-01-12T07:36:50.969Z,100426.31
2023-01-12T07:39:18.151Z,100424.34
2023-01-12T07:42:03.533Z,100422.22
2023-01-12T07:44:30.261Z,100416.22
2023-01-12T07:46:57.016Z,100424.00
2023-01-12T07:49:23.744Z,100413.44
2023-01-12T07:51:54.102Z,100404.75
2023-01-12T07:54:21.471Z,100416.47
2023-01-12T07:56:48.616Z,100420.88
2023-01-12T07:59:15.282Z,100403.84
2023-01-12T08:01:42.050Z,100425.25
2023-01-12T08:04:08.801Z,100411.06
2023-01-12T08:06:36.200Z,100414.53
2023-01-12T08:09:03.908Z,100420.72
2023-01-12T08:11:30.715Z,100427.44
2023-01-12T08:13:58.629Z,100428.34
2023-01-12T08:16:38.424Z,100428.34
2023-01-12T08:19:17.371Z,100420.66
2023-01-12T08:22:09.431Z,100426.53
2023-01-12T08:24:44.743Z,100430.84
2023-01-12T08:27:11.422Z,100446.38
2023-01-12T08:29:47.527Z,100432.41
2023-01-12T08:32:17.918Z,100426.34
2023-01-12T08:34:49.338Z,100432.38
2023-01-12T08:37:20.464Z,100438.88
2023-01-12T08:39:48.934Z,100444.28
2023-01-12T08:42:15.694Z,100439.56
2023-01-12T08:44:42.827Z,100426.66
2023-01-12T08:47:23.024Z,100441.38
2023-01-12T08:49:49.789Z,100446.63
2023-01-12T08:52:16.838Z,100448.00
2023-01-12T08:54:44.339Z,100447.34
2023-01-12T08:57:11.697Z,100435.19
2023-01-12T08:59:38.503Z,100435.00
2023-01-12T09:02:05.919Z,100449.81
2023-01-12T09:04:32.799Z,100431.66
2023-01-12T09:07:00.255Z,100435.78
2023-01-12T09:09:27.921Z,100436.56
2023-01-12T09:11:54.952Z,100444.19
2023-01-12T09:14:21.915Z,100447.72
2023-01-12T09:16:49.496Z,100444.38
2023-01-12T09:19:16.196Z,100451.03
2023-01-12T09:21:44.122Z,100449.41
2023-01-12T09:24:12.619Z,100427.00
2023-01-12T09:26:46.741Z,100463.00
2023-01-12T09:29:14.488Z,100457.03
2023-01-12T09:31:44.036Z,100456.06
2023-01-12T09:34:11.257Z,100460.34
2023-01-12T09:36:40.739Z,100459.22
2023-01-12T09:39:10.366Z,100453.09
2023-01-12T09:42:04.403Z,100464.03
2023-01-12T09:44:56.828Z,100466.00
2023-01-12T09:47:48.901Z,100468.44
2023-01-12T09:50:23.878Z,100470.91
2023-01-12T09:52:59.529Z,100475.28
2023-01-12T09:55:31.231Z,100476.97
2023-01-12T09:58:27.516Z,100492.09
2023-01-12T10:00:57.655Z,100483.63
2023-01-12T10:03:35.513Z,100492.28
2023-01-12T10:06:02.625Z,100493.00
2023-01-12T10:08:41.659Z,100485.91
2023-01-12T10:11:15.691Z,100482.09
2023-01-12T10:14:25.592Z,100492.56
2023-01-12T10:16:58.101Z,100499.72
2023-01-12T10:19:58.951Z,100495.94
2023-01-12T10:22:37.928Z,100501.22
2023-01-12T10:25:17.270Z,100496.81
2023-01-12T10:27:48.145Z,100499.28
2023-01-12T10:30:35.943Z,100503.03
2023-01-12T10:33:34.287Z,100501.09
2023-01-12T10:36:10.318Z,100508.19
2023-01-12T10:39:03.354Z,100502.97
2023-01-12T10:41:33.411Z,100493.06
2023-01-12T10:44:00.002Z,100491.53
2023-01-12T10:46:34.112Z,100485.22
2023-01-12T10:49:25.104Z,100487.63
2023-01-12T10:51:55.548Z,100488.31
2023-01-12T10:54:33.689Z,100504.78
2023-01-12T10:57:08.396Z,100499.69
2023-01-12T10:59:40.568Z,100497.16
2023-01-12T12:02:20.215Z,100491.03
2023-01-12T12:05:00.950Z,100486.84
2023-01-12T12:07:39.345Z,100484.97
2023-01-12T12:10:38.656Z,100480.84
2023-01-12T12:13:20.809Z,100475.59
2023-01-12T12:16:16.701Z,100479.78
2023-01-12T12:19:01.792Z,100479.81
2023-01-12T12:22:09.808Z,100474.53
2023-01-12T12:25:10.424Z,100459.09
2023-01-12T12:28:30.482Z,100465.22
2023-01-12T12:36:10.026Z,100461.50
2023-01-12T12:38:45.178Z,100462.47
2023-01-12T12:41:55.770Z,100460.75
2023-01-12T12:44:55.400Z,100456.56
2023-01-12T12:47:51.990Z,100458.16
2023-01-12T12:50:20.809Z,100446.19
2023-01-12T12:53:00.696Z,100455.59
2023-01-12T12:55:27.771Z,100445.97
2023-01-12T12:58:26.847Z,100447.78
2023-01-12T13:00:56.704Z,100450.41
2023-01-12T13:03:41.914Z,100441.91
2023-01-12T13:06:26.170Z,100440.78
2023-01-12T13:09:21.578Z,100417.69
2023-01-12T13:11:57.496Z,100425.47
2023-01-12T13:14:39.909Z,100434.06
2023-01-12T13:17:18.756Z,100434.22
2023-01-12T13:19:51.919Z,100435.91
2023-01-12T13:22:32.377Z,100435.16
2023-01-12T13:25:24.247Z,100430.13
2023-01-12T13:28:00.271Z,100425.03
2023-01-12T13:30:27.022Z,100434.50
2023-01-12T13:32:53.630Z,100423.09
2023-01-12T13:35:35.013Z,100431.00
2023-01-12T13:38:33.121Z,100434.97
2023-01-12T13:41:44.111Z,100431.00
2023-01-12T13:44:20.243Z,100424.84
2023-01-12T13:46:53.278Z,100437.97
2023-01-12T13:49:33.048Z,100434.41
2023-01-12T13:52:04.173Z,100433.59
2023-01-12T13:54:31.971Z,100437.13
2023-01-12T13:57:10.482Z,100436.28
2023-01-12T13:59:37.233Z,100432.88
2023-01-12T14:02:04.315Z,100435.47
2023-01-12T14:04:54.170Z,100429.59
2023-01-12T14:07:43.595Z,100433.88
2023-01-12T14:10:19.380Z,100434.69
2023-01-12T14:12:58.128Z,100439.13
2023-01-12T14:15:58.934Z,100434.69
2023-01-12T14:18:48.788Z,100438.72
2023-01-12T14:21:44.113Z,100440.63
2023-01-12T14:24:17.955Z,100429.66
2023-01-12T14:26:44.767Z,100430.41
2023-01-12T14:29:12.740Z,100428.69
2023-01-12T14:31:48.491Z,100427.91
2023-01-12T14:34:28.231Z,100429.34
2023-01-12T14:36:55.887Z,100418.06
2023-01-12T14:39:26.890Z,100423.00
2023-01-12T14:42:16.323Z,100436.28
2023-01-12T14:45:14.780Z,100425.81
2023-01-12T14:47:41.926Z,100419.78
2023-01-12T14:50:20.317Z,100428.13
2023-01-12T14:52:48.678Z,100419.78
2023-01-12T14:55:38.899Z,100415.50
2023-01-12T14:58:06.999Z,100413.66
2023-01-12T15:00:36.714Z,100402.06
2023-01-12T15:03:21.249Z,100405.03
2023-01-12T15:05:54.884Z,100395.75
2023-01-12T15:08:27.838Z,100405.91
2023-01-12T15:11:08.040Z,100401.59
2023-01-12T15:13:38.677Z,100400.56
2023-01-12T15:16:25.261Z,100391.06
2023-01-12T15:19:10.523Z,100399.91
2023-01-12T15:21:57.134Z,100387.78
2023-01-12T15:24:48.707Z,100390.34
2023-01-12T15:27:21.875Z,100383.34
2023-01-12T15:29:48.574Z,100386.00
2023-01-12T15:32:46.786Z,100386.28
2023-01-12T15:35:26.909Z,100388.41
2023-01-12T15:37:56.027Z,100387.97
2023-01-12T15:40:24.816Z,100383.59
2023-01-12T15:42:53.354Z,100383.13
2023-01-12T15:45:27.234Z,100384.19
2023-01-12T15:47:54.028Z,100387.06
2023-01-12T15:50:20.762Z,100381.16
2023-01-12T15:52:48.679Z,100385.16
2023-01-12T15:55:20.254Z,100376.59
2023-01-12T15:57:47.486Z,100372.44
2023-01-12T16:00:17.550Z,100377.41
2023-01-12T16:02:45.520Z,100381.44
2023-01-12T16:05:13.372Z,100383.78
2023-01-12T16:07:40.230Z,100376.44
2023-01-12T16:10:09.041Z,100377.97
2023-01-12T16:12:37.107Z,100373.88
2023-01-12T16:15:06.018Z,100379.44
2023-01-12T16:17:33.281Z,100379.06
2023-01-12T16:20:00.141Z,100361.84
2023-01-12T16:22:28.076Z,100372.06
2023-01-12T16:25:06.062Z,100371.00
2023-01-12T16:27:32.895Z,100356.00
2023-01-12T16:29:59.636Z,100367.03
2023-01-12T16:32:27.454Z,100362.88
2023-01-12T16:34:54.327Z,100347.69
2023-01-12T16:37:23.139Z,100363.19
2023-01-12T16:39:50.182Z,100353.59
2023-01-12T16:42:16.867Z,100360.53
2023-01-12T16:44:43.501Z,100349.56
2023-01-12T16:47:16.826Z,100352.47
2023-01-12T16:49:44.286Z,100353.78
2023-01-12T16:52:14.987Z,100350.69
2023-01-12T16:54:42.698Z,100345.16
2023-01-12T16:57:11.884Z,100334.59
2023-01-12T16:59:39.036Z,100340.88
2023-01-12T17:02:08.352Z,100342.44
2023-01-12T17:04:37.689Z,100348.16
2023-01-12T17:07:06.513Z,100344.03
2023-01-12T17:09:38.651Z,100344.50
2023-01-12T17:12:06.356Z,100331.53
2023-01-12T17:14:34.677Z,100337.50
2023-01-12T17:17:07.259Z,100349.88
2023-01-12T17:19:36.683Z,100350.78
2023-01-12T17:22:06.699Z,100343.09
2023-01-12T17:24:36.239Z,100346.59
2023-01-12T17:27:03.459Z,100347.16
2023-01-12T17:29:30.347Z,100333.06
2023-01-12T17:32:04.019Z,100344.56
2023-01-12T17:34:36.726Z,100340.41
2023-01-12T17:37:04.199Z,100344.91
2023-01-12T17:39:31.410Z,100335.44
2023-01-12T17:42:16.619Z,100337.59
2023-01-12T17:44:43.518Z,100342.78
2023-01-12T17:47:11.383Z,100345.28
2023-01-12T17:49:38.638Z,100343.47
2023-01-12T17:52:05.679Z,100335.78
2023-01-12T17:54:32.523Z,100339.31
2023-01-12T17:56:59.452Z,100341.88
2023-01-12T17:59:26.219Z,100340.38
2023-01-12T18:01:53.701Z,100341.84
2023-01-12T18:04:21.533Z,100348.13
2023-01-12T18:06:48.233Z,100350.53
2023-01-12T18:09:15.011Z,100342.69
2023-01-12T18:11:41.963Z,100344.72
2023-01-12T18:14:09.627Z,100346.84
2023-01-12T18:16:36.477Z,100336.84
2023-01-12T18:19:10.203Z,100341.13
2023-01-12T18:21:36.968Z,100343.53
2023-01-12T18:24:03.946Z,100350.28
2023-01-12T18:26:35.656Z,100337.88
2023-01-12T18:29:05.508Z,100342.31
2023-01-12T18:31:37.834Z,100343.31
2023-01-12T18:34:07.863Z,100341.72
2023-01-12T18:36:39.180Z,100341.59
2023-01-12T18:39:10.611Z,100345.19
2023-01-12T18:41:56.415Z,100348.63
2023-01-12T18:44:24.758Z,100344.41
2023-01-12T18:47:10.455Z,100336.72
2023-01-12T18:49:39.287Z,100337.72
2023-01-12T18:52:25.652Z,100342.09
2023-01-12T18:54:53.404Z,100343.75
2023-01-12T18:57:24.176Z,100344.47
2023-01-12T19:00:07.584Z,100338.25
2023-01-12T19:02:34.341Z,100342.84
2023-01-12T19:05:16.111Z,100332.59
2023-01-12T19:07:57.810Z,100334.84
2023-01-12T19:10:25.663Z,100328.97
2023-01-12T19:13:12.374Z,100330.72
2023-01-12T19:15:59.388Z,100324.38
2023-01-12T19:18:27.316Z,100321.72
2023-01-12T19:21:13.973Z,100327.84
2023-01-12T19:23:59.309Z,100331.34
2023-01-12T19:26:44.335Z,100327.06
2023-01-12T19:29:11.064Z,100332.94
2023-01-12T19:31:37.844Z,100328.69
2023-01-12T19:34:04.911Z,100331.47
2023-01-12T19:36:31.722Z,100327.25
2023-01-12T19:39:00.491Z,100322.13
2023-01-12T19:41:45.588Z,100320.13
2023-01-12T19:44:12.286Z,100323.66
2023-01-12T19:46:39.068Z,100317.84
2023-01-12T19:49:05.801Z,100307.72
2023-01-12T19:51:32.501Z,100305.13
2023-01-12T19:53:59.314Z,100302.53
2023-01-12T19:56:26.967Z,100305.91
2023-01-12T19:58:54.149Z,100302.53
2023-01-12T20:01:22.291Z,100287.19
2023-01-12T20:03:50.757Z,100287.72
2023-01-12T20:06:18.056Z,100284.84
2023-01-12T20:08:44.942Z,100285.22
2023-01-12T20:11:11.783Z,100285.16
2023-01-12T20:13:38.570Z,100288.13
2023-01-12T20:16:13.230Z,100276.84
2023-01-12T20:18:43.269Z,100278.41
2023-01-12T20:21:11.722Z,100284.59
2023-01-12T20:23:38.750Z,100286.38
2023-01-12T20:26:08.215Z,100294.25
2023-01-12T20:28:35.546Z,100305.44
2023-01-12T20:31:08.838Z,100305.56
2023-01-12T20:33:35.575Z,100302.50
2023-01-12T20:36:02.585Z,100296.56
2023-01-12T20:38:29.347Z,100306.16
2023-01-12T20:40:56.174Z,100298.59
2023-01-12T20:43:22.896Z,100296.88
2023-01-12T20:45:50.140Z,100296.88
2023-01-12T20:48:17.125Z,100303.41
2023-01-12T20:50:45.690Z,100304.13
2023-01-12T20:53:14.337Z,100304.13
2023-01-12T20:55:48.296Z,100310.84
2023-01-12T20:58:16.151Z,100316.16
2023-01-12T21:00:42.990Z,100297.31
2023-01-12T21:03:09.993Z,100293.69
2023-01-12T21:05:42.055Z,100301.47
2023-01-12T21:08:09.299Z,100292.06
2023-01-12T21:10:38.542Z,100304.16
2023-01-12T21:13:05.904Z,100292.13
2023-01-12T21:15:32.983Z,100298.94
2023-01-12T21:17:59.834Z,100292.06
2023-01-12T21:20:26.628Z,100300.63
2023-01-12T21:22:53.502Z,100297.13
2023-01-12T21:25:20.642Z,100290.28
2023-01-12T21:27:47.413Z,100291.28
2023-01-12T21:30:14.496Z,100288.03
2023-01-12T21:32:43.411Z,100287.00
2023-01-12T21:35:10.325Z,100283.75
2023-01-12T21:37:37.110Z,100276.75
2023-01-12T21:40:05.236Z,100281.81
2023-01-12T21:42:50.736Z,100278.41
2023-01-12T21:45:18.719Z,100278.22
2023-01-12T21:47:46.314Z,100269.66
2023-01-12T21:50:13.350Z,100262.69
2023-01-12T21:52:41.660Z,100273.88
2023-01-12T21:55:13.555Z,100279.84
2023-01-12T21:57:41.844Z,100289.22
2023-01-12T22:00:10.557Z,100291.06
2023-01-12T22:02:39.874Z,100283.41
2023-01-12T22:05:07.180Z,100274.38
2023-01-12T22:07:34.095Z,100273.50
2023-01-12T22:10:19.928Z,100272.00
2023-01-12T22:12:48.500Z,100272.19
2023-01-12T22:15:15.967Z,100281.66
2023-01-12T22:17:43.157Z,100278.22
2023-01-12T22:20:12.343Z,100287.44
2023-01-12T22:22:41.086Z,100267.41
2023-01-12T22:25:12.206Z,100274.47
2023-01-12T22:27:41.750Z,100274.25
2023-01-12T22:30:13.085Z,100279.44
2023-01-12T22:32:41.373Z,100267.31
2023-01-12T22:35:12.197Z,100268.34
2023-01-12T22:37:43.231Z,100274.88
2023-01-12T22:40:12.529Z,100274.78
2023-01-12T22:42:58.360Z,100269.69
2023-01-12T22:45:25.077Z,100272.91
2023-01-12T22:47:56.441Z,100263.34
2023-01-12T22:50:24.752Z,100257.28
2023-01-12T22:52:54.890Z,100260.66
2023-01-12T22:55:23.322Z,100255.66
2023-01-12T22:57:50.094Z,100252.91
2023-01-12T23:00:19.226Z,100246.31
2023-01-12T23:03:01.867Z,100251.41
2023-01-12T23:05:35.980Z,100249.69
2023-01-12T23:08:05.957Z,100254.97
2023-01-12T23:10:33.483Z,100262.69
2023-01-12T23:13:15.967Z,100248.41
2023-01-12T23:15:49.319Z,100252.53
2023-01-12T23:18:22.142Z,100245.94
2023-01-12T23:20:49.518Z,100246.03
2023-01-12T23:23:19.778Z,100238.84
2023-01-12T23:25:47.653Z,100236.25
2023-01-12T23:28:15.197Z,100242.25
2023-01-12T23:30:42.320Z,100238.84
2023-01-12T23:33:09.646Z,100237.78
2023-01-12T23:35:39.862Z,100240.31
2023-01-12T23:38:09.300Z,100239.47
2023-01-12T23:40:35.980Z,100248.03
2023-01-12T23:43:03.135Z,100253.41
2023-01-12T23:45:29.875Z,100232.41
2023-01-12T23:47:57.091Z,100237.94
2023-01-12T23:50:24.450Z,100249.31
2023-01-12T23:52:51.679Z,100246.03
2023-01-12T23:55:18.941Z,100249.69
2023-01-12T23:57:47.717Z,100249.78
